createdAt,value
2022-11-20T00:01:34.166Z,-2.10
2022-11-20T00:04:02.443Z,-2.10
2022-11-20T00:06:30.875Z,-2.20
2022-11-20T00:09:01.297Z,-2.20
2022-11-20T00:11:31.533Z,-2.30
2022-11-20T00:14:02.368Z,-2.30
2022-11-20T00:16:34.225Z,-2.40
2022-11-20T00:19:02.302Z,-2.40
2022-11-20T00:21:31.253Z,-2.46
2022-11-20T00:23:59.253Z,-2.50
2022-11-20T00:26:32.292Z,-2.50
2022-11-20T00:29:01.977Z,-2.50
2022-11-20T00:31:31.872Z,-2.50
2022-11-20T00:34:02.488Z,-2.46
2022-11-20T00:36:34.712Z,-2.42
2022-11-20T00:39:03.203Z,-2.44
2022-11-20T00:41:31.045Z,-2.40
2022-11-20T00:43:59.092Z,-2.40
2022-11-20T00:46:28.986Z,-2.40
2022-11-20T00:48:56.992Z,-2.40
2022-11-20T00:51:27.461Z,-2.40
2022-11-20T00:54:00.947Z,-2.30
2022-11-20T00:56:29.555Z,-2.20
2022-11-20T00:59:01.837Z,-2.14
2022-11-20T01:01:30.514Z,-2.10
2022-11-20T01:04:00.933Z,-2.00
2022-11-20T01:06:32.489Z,-2.00
2022-11-20T01:09:04.426Z,-1.90
2022-11-20T01:11:36.383Z,-1.92
2022-11-20T01:14:08.868Z,-2.00
2022-11-20T01:16:49.975Z,-2.00
2022-11-20T01:19:23.338Z,-2.00
2022-11-20T01:21:55.117Z,-2.10
2022-11-20T01:24:24.071Z,-2.10
2022-11-20T01:26:52.478Z,-2.20
2022-11-20T01:29:24.516Z,-2.20
2022-11-20T01:31:53.591Z,-2.20
2022-11-20T01:34:23.197Z,-2.20
2022-11-20T01:36:51.429Z,-2.20
2022-11-20T01:39:24.029Z,-2.28
2022-11-20T01:42:12.668Z,-2.30
2022-11-20T01:44:59.610Z,-2.30
2022-11-20T01:47:44.178Z,-2.30
2022-11-20T01:50:23.616Z,-2.38
2022-11-20T01:53:03.197Z,-2.40
2022-11-20T01:55:37.310Z,-2.40
2022-11-20T01:58:05.996Z,-2.40
2022-11-20T02:00:33.966Z,-2.40
2022-11-20T02:06:53.538Z,-2.30
2022-11-20T02:09:24.623Z,-2.28
2022-11-20T02:12:00.404Z,-2.20
2022-11-20T02:14:31.030Z,-2.20
2022-11-20T02:17:02.956Z,-2.20
2022-11-20T02:19:32.946Z,-2.20
2022-11-20T02:25:15.513Z,-2.30
2022-11-20T02:27:46.953Z,-2.30
2022-11-20T02:30:16.682Z,-2.30
2022-11-20T02:32:47.306Z,-2.30
2022-11-20T02:35:23.733Z,-2.30
2022-11-20T02:37:56.547Z,-2.30
2022-11-20T02:40:40.328Z,-2.30
2022-11-20T02:43:09.319Z,-2.30
2022-11-20T02:45:37.710Z,-2.22
2022-11-20T02:48:08.787Z,-2.20
2022-11-20T02:50:41.467Z,-2.20
2022-11-20T02:53:11.005Z,-2.10
2022-11-20T02:55:41.631Z,-2.12
2022-11-20T02:58:18.565Z,-2.18
2022-11-20T03:00:49.370Z,-2.20
2022-11-20T03:03:18.924Z,-2.20
2022-11-20T03:05:50.907Z,-2.20
2022-11-20T03:08:28.695Z,-2.20
2022-11-20T03:11:06.990Z,-2.22
2022-11-20T03:13:38.221Z,-2.30
2022-11-20T03:16:15.520Z,-2.30
2022-11-20T03:18:45.201Z,-2.20
2022-11-20T03:21:16.064Z,-2.22
2022-11-20T03:23:45.836Z,-2.20
2022-11-20T03:26:25.333Z,-2.20
2022-11-20T03:29:01.026Z,-2.20
2022-11-20T03:31:37.804Z,-2.20
2022-11-20T03:34:12.442Z,-2.20
2022-11-20T03:36:44.069Z,-2.30
2022-11-20T03:39:14.416Z,-2.30
2022-11-20T03:41:44.526Z,-2.40
2022-11-20T03:44:14.121Z,-2.40
2022-11-20T03:46:43.699Z,-2.40
2022-11-20T03:49:14.884Z,-2.40
2022-11-20T03:51:54.924Z,-2.46
2022-11-20T03:55:24.313Z,-2.50
2022-11-20T03:58:20.187Z,-2.50
2022-11-20T04:00:50.987Z,-2.60
2022-11-20T04:03:18.921Z,-2.60
2022-11-20T04:05:49.191Z,-2.60
2022-11-20T04:08:17.544Z,-2.70
2022-11-20T04:10:50.549Z,-2.70
2022-11-20T04:13:21.409Z,-2.70
2022-11-20T04:15:51.225Z,-2.70
2022-11-20T04:18:20.727Z,-2.70
2022-11-20T04:20:49.380Z,-2.70
2022-11-20T04:23:19.165Z,-2.70
2022-11-20T04:25:51.362Z,-2.68
2022-11-20T04:28:22.087Z,-2.70
2022-11-20T04:30:54.298Z,-2.70
2022-11-20T04:33:23.078Z,-2.70
2022-11-20T04:35:52.827Z,-2.80
2022-11-20T04:38:24.206Z,-2.80
2022-11-20T04:41:08.053Z,-2.90
2022-11-20T04:43:49.199Z,-2.90
2022-11-20T04:46:22.701Z,-3.00
2022-11-20T04:48:55.351Z,-3.00
2022-11-20T04:51:25.652Z,-3.00
2022-11-20T04:53:55.095Z,-3.00
2022-11-20T04:56:23.504Z,-3.00
2022-11-20T04:58:51.926Z,-3.08
2022-11-20T05:01:24.320Z,-3.10
2022-11-20T05:03:55.870Z,-3.10
2022-11-20T05:06:24.475Z,-3.10
2022-11-20T05:08:52.427Z,-3.12
2022-11-20T05:11:30.327Z,-3.10
2022-11-20T05:14:01.170Z,-3.12
2022-11-20T05:16:33.123Z,-3.12
2022-11-20T05:19:04.543Z,-3.10
2022-11-20T05:21:38.550Z,-3.00
2022-11-20T05:24:09.197Z,-3.00
2022-11-20T05:26:41.987Z,-3.00
2022-11-20T05:29:20.728Z,-2.90
2022-11-20T05:31:48.932Z,-2.90
2022-11-20T05:34:18.467Z,-2.88
2022-11-20T05:36:52.124Z,-2.82
2022-11-20T05:39:24.732Z,-2.80
2022-11-20T05:42:13.625Z,-2.80
2022-11-20T05:44:43.166Z,-2.80
2022-11-20T05:47:14.541Z,-2.80
2022-11-20T05:49:44.254Z,-2.90
2022-11-20T05:52:16.961Z,-2.90
2022-11-20T05:54:47.023Z,-2.92
2022-11-20T05:57:19.641Z,-3.00
2022-11-20T05:59:48.307Z,-3.04
2022-11-20T06:02:19.110Z,-3.10
2022-11-20T06:04:51.189Z,-3.10
2022-11-20T06:07:19.663Z,-3.16
2022-11-20T06:09:50.599Z,-3.20
2022-11-20T06:12:19.544Z,-3.20
2022-11-20T06:14:47.597Z,-3.20
2022-11-20T06:17:17.322Z,-3.28
2022-11-20T06:19:48.079Z,-3.30
2022-11-20T06:22:16.643Z,-3.36
2022-11-20T06:24:47.991Z,-3.40
2022-11-20T06:27:23.735Z,-3.40
2022-11-20T06:29:53.437Z,-3.40
2022-11-20T06:32:24.172Z,-3.40
2022-11-20T06:34:57.086Z,-3.48
2022-11-20T06:37:25.232Z,-3.46
2022-11-20T06:39:53.693Z,-3.40
2022-11-20T06:42:27.789Z,-3.40
2022-11-20T06:44:59.774Z,-3.32
2022-11-20T06:47:28.690Z,-3.30
2022-11-20T06:49:58.070Z,-3.30
2022-11-20T06:52:26.055Z,-3.20
2022-11-20T06:54:55.211Z,-3.20
2022-11-20T06:57:25.104Z,-3.20
2022-11-20T06:59:56.164Z,-3.20
2022-11-20T07:02:27.216Z,-3.20
2022-11-20T07:05:00.808Z,-3.20
2022-11-20T07:07:31.967Z,-3.20
2022-11-20T07:10:06.005Z,-3.20
2022-11-20T07:12:37.133Z,-3.20
2022-11-20T07:15:07.990Z,-3.20
2022-11-20T07:17:35.941Z,-3.20
2022-11-20T07:20:05.520Z,-3.20
2022-11-20T07:22:38.788Z,-3.20
2022-11-20T07:25:09.512Z,-3.20
2022-11-20T07:27:39.897Z,-3.14
2022-11-20T07:30:13.092Z,-3.10
2022-11-20T07:32:42.189Z,-3.10
2022-11-20T07:35:11.313Z,-3.10
2022-11-20T07:37:40.007Z,-3.00
2022-11-20T07:40:09.567Z,-2.90
2022-11-20T07:42:48.564Z,-2.80
2022-11-20T07:45:20.478Z,-2.70
2022-11-20T07:47:51.369Z,-2.60
2022-11-20T07:50:24.213Z,-2.50
2022-11-20T07:52:53.336Z,-2.50
2022-11-20T07:55:22.821Z,-2.40
2022-11-20T07:57:58.329Z,-2.40
2022-11-20T08:00:35.592Z,-2.40
2022-11-20T08:03:06.277Z,-2.40
2022-11-20T08:05:38.310Z,-2.40
2022-11-20T08:08:11.116Z,-2.38
2022-11-20T08:10:40.566Z,-2.30
2022-11-20T08:13:29.702Z,-2.30
2022-11-20T08:16:00.914Z,-2.30
2022-11-20T08:18:32.519Z,-2.30
2022-11-20T08:21:07.578Z,-2.30
2022-11-20T08:23:38.411Z,-2.20
2022-11-20T08:26:09.865Z,-2.20
2022-11-20T08:28:42.021Z,-2.10
2022-11-20T08:31:12.130Z,-1.98
2022-11-20T08:33:41.422Z,-1.90
2022-11-20T08:36:10.071Z,-1.80
2022-11-20T08:38:40.159Z,-1.70
2022-11-20T08:41:28.541Z,-1.60
2022-11-20T08:44:08.015Z,-1.60
2022-11-20T08:46:40.648Z,-1.60
2022-11-20T08:49:13.791Z,-1.50
2022-11-20T08:51:44.877Z,-1.50
2022-11-20T08:54:15.032Z,-1.50
2022-11-20T08:56:46.164Z,-1.40
2022-11-20T08:59:31.240Z,-1.40
2022-11-20T09:02:04.047Z,-1.36
2022-11-20T09:04:34.214Z,-1.34
2022-11-20T09:07:06.506Z,-1.38
2022-11-20T09:09:36.586Z,-1.30
2022-11-20T09:12:08.601Z,-1.30
2022-11-20T09:14:41.065Z,-1.26
2022-11-20T09:17:14.607Z,-1.20
2022-11-20T09:19:43.306Z,-1.12
2022-11-20T09:22:15.213Z,-1.10
2022-11-20T09:24:47.918Z,-1.08
2022-11-20T09:27:21.860Z,-0.98
2022-11-20T09:29:49.828Z,-0.90
2022-11-20T09:32:17.922Z,-0.80
2022-11-20T09:34:48.628Z,-0.80
2022-11-20T09:37:16.706Z,-0.70
2022-11-20T09:39:46.346Z,-0.70
2022-11-20T09:42:41.854Z,-0.62
2022-11-20T09:45:24.319Z,-0.60
2022-11-20T09:48:14.677Z,-0.60
2022-11-20T09:51:29.772Z,-0.60
2022-11-20T09:54:28.914Z,-0.60
2022-11-20T09:57:04.682Z,-0.50
2022-11-20T09:59:55.659Z,-0.50
2022-11-20T10:02:26.013Z,-0.48
2022-11-20T10:05:31.762Z,-0.40
2022-11-20T10:08:44.192Z,-0.36
2022-11-20T10:11:48.590Z,-0.30
2022-11-20T10:14:24.925Z,-0.20
2022-11-20T10:17:36.882Z,-0.08
2022-11-20T10:20:31.367Z,0.10
2022-11-20T10:23:30.004Z,0.20
2022-11-20T10:26:47.436Z,0.30
2022-11-20T10:29:24.218Z,0.30
2022-11-20T10:32:19.759Z,0.30
2022-11-20T10:35:26.690Z,0.30
2022-11-20T10:38:14.593Z,0.40
2022-11-20T10:40:59.299Z,0.40
2022-11-20T10:43:35.763Z,0.48
2022-11-20T10:46:28.095Z,0.50
2022-11-20T10:49:04.097Z,0.50
2022-11-20T10:51:48.518Z,0.50
2022-11-20T10:54:50.734Z,0.50
2022-11-20T10:57:39.809Z,0.50
2022-11-20T11:00:15.239Z,0.50
2022-11-20T11:02:57.129Z,0.60
2022-11-20T11:06:02.160Z,0.60
2022-11-20T11:08:38.743Z,0.60
2022-11-20T11:11:25.945Z,0.70
2022-11-20T11:14:13.467Z,0.70
2022-11-20T11:16:59.462Z,0.80
2022-11-20T11:19:27.472Z,0.80
2022-11-20T11:22:01.675Z,0.80
2022-11-20T11:24:42.737Z,0.88
2022-11-20T11:27:18.771Z,0.90
2022-11-20T11:29:53.316Z,1.00
2022-11-20T11:32:28.886Z,1.00
2022-11-20T11:35:07.294Z,1.10
2022-11-20T11:37:40.850Z,1.10
2022-11-20T11:40:23.800Z,1.10
2022-11-20T11:43:00.943Z,1.20
2022-11-20T11:45:29.375Z,1.30
2022-11-20T11:48:06.252Z,1.36
2022-11-20T11:50:37.814Z,1.40
2022-11-20T11:53:25.372Z,1.50
2022-11-20T11:56:14.994Z,1.60
2022-11-20T11:58:52.900Z,1.70
2022-11-20T12:02:11.143Z,1.70
2022-11-20T12:04:50.898Z,1.70
2022-11-20T12:07:47.256Z,1.80
2022-11-20T12:10:54.620Z,1.80
2022-11-20T12:13:35.850Z,1.90
2022-11-20T12:16:05.685Z,1.90
2022-11-20T12:18:35.368Z,1.90
2022-11-20T12:21:35.675Z,1.92
2022-11-20T12:24:33.003Z,1.90
2022-11-20T12:27:20.946Z,1.90
2022-11-20T12:30:12.642Z,1.94
2022-11-20T12:32:55.781Z,2.00
2022-11-20T12:36:11.058Z,2.06
2022-11-20T12:39:01.413Z,2.10
2022-11-20T12:42:58.389Z,2.10
2022-11-20T12:45:52.651Z,2.20
2022-11-20T12:48:56.878Z,2.20
2022-11-20T12:51:58.186Z,2.28
2022-11-20T12:54:57.553Z,2.30
2022-11-20T12:57:46.270Z,2.30
2022-11-20T13:00:26.131Z,2.30
2022-11-20T13:03:24.101Z,2.30
2022-11-20T13:06:06.328Z,2.40
2022-11-20T13:08:43.163Z,2.40
2022-11-20T13:11:55.119Z,2.42
2022-11-20T13:15:04.478Z,2.40
2022-11-20T13:18:05.134Z,2.40
2022-11-20T13:20:35.698Z,2.42
2022-11-20T13:23:03.968Z,2.50
2022-11-20T13:25:39.017Z,2.60
2022-11-20T13:28:09.882Z,2.70
2022-11-20T13:30:51.639Z,2.70
2022-11-20T13:33:32.705Z,2.70
2022-11-20T13:36:27.713Z,2.70
2022-11-20T13:39:01.167Z,2.70
2022-11-20T13:41:36.620Z,2.70
2022-11-20T13:44:54.525Z,2.68
2022-11-20T13:47:27.976Z,2.68
2022-11-20T13:50:00.535Z,2.60
2022-11-20T13:53:08.119Z,2.60
2022-11-20T13:56:12.657Z,2.54
2022-11-20T13:59:22.017Z,2.50
2022-11-20T14:01:50.434Z,2.40
2022-11-20T14:04:43.892Z,2.40
2022-11-20T14:07:13.344Z,2.30
2022-11-20T14:09:57.539Z,2.20
2022-11-20T14:12:35.451Z,2.20
2022-11-20T14:15:05.376Z,2.10
2022-11-20T14:17:38.263Z,2.04
2022-11-20T14:20:17.877Z,2.00
2022-11-20T14:22:55.616Z,1.90
2022-11-20T14:25:33.632Z,1.80
2022-11-20T14:28:04.776Z,1.80
2022-11-20T14:30:49.653Z,1.80
2022-11-20T14:33:23.430Z,1.70
2022-11-20T14:35:57.369Z,1.70
2022-11-20T14:38:32.397Z,1.68
2022-11-20T14:41:18.871Z,1.62
2022-11-20T14:44:12.353Z,1.60
2022-11-20T14:46:46.342Z,1.60
2022-11-20T14:49:18.868Z,1.56
2022-11-20T14:51:59.150Z,1.60
2022-11-20T14:54:36.477Z,1.60
2022-11-20T14:57:07.219Z,1.60
2022-11-20T14:59:43.993Z,1.60
2022-11-20T15:02:25.464Z,1.60
2022-11-20T15:05:04.330Z,1.50
2022-11-20T15:07:42.980Z,1.48
2022-11-20T15:10:26.032Z,1.40
2022-11-20T15:13:06.080Z,1.32
2022-11-20T15:15:52.732Z,1.30
2022-11-20T15:18:26.485Z,1.20
2022-11-20T15:20:56.937Z,1.20
2022-11-20T15:23:30.166Z,1.10
2022-11-20T15:26:00.641Z,1.00
2022-11-20T15:28:45.640Z,1.00
2022-11-20T15:31:17.459Z,0.90
2022-11-20T15:33:45.888Z,0.86
2022-11-20T15:36:16.272Z,0.80
2022-11-20T15:38:49.456Z,0.80
2022-11-20T15:41:20.729Z,0.72
2022-11-20T15:43:51.337Z,0.70
2022-11-20T15:46:42.630Z,0.70
2022-11-20T15:49:53.077Z,0.70
2022-11-20T15:52:41.760Z,0.60
2022-11-20T16:00:44.858Z,0.58
2022-11-20T16:03:58.732Z,0.50
2022-11-20T16:14:59.473Z,0.20
2022-11-20T16:15:21.873Z,0.30
2022-11-20T16:17:43.862Z,0.10
2022-11-20T16:20:14.839Z,0.02
2022-11-20T16:23:05.369Z,0.00
2022-11-20T16:25:35.915Z,0.00
2022-11-20T16:28:06.047Z,0.00
2022-11-20T16:30:35.958Z,0.00
2022-11-20T16:33:06.586Z,0.04
2022-11-20T16:35:35.341Z,0.02
2022-11-20T16:38:04.705Z,0.00
2022-11-20T16:40:34.918Z,0.00
2022-11-20T16:43:11.122Z,0.00
2022-11-20T16:45:45.833Z,-0.10
2022-11-20T16:48:17.186Z,-0.10
2022-11-20T16:50:57.078Z,-0.18
2022-11-20T16:53:34.078Z,-0.20
2022-11-20T16:56:18.557Z,-0.20
2022-11-20T16:58:53.211Z,-0.20
2022-11-20T17:01:26.459Z,-0.20
2022-11-20T17:04:08.331Z,-0.24
2022-11-20T17:06:44.337Z,-0.24
2022-11-20T17:09:13.979Z,-0.20
2022-11-20T17:11:44.911Z,-0.18
2022-11-20T17:14:22.019Z,-0.10
2022-11-20T17:17:08.802Z,-0.10
2022-11-20T17:19:39.574Z,-0.10
2022-11-20T17:22:09.961Z,-0.20
2022-11-20T17:24:41.048Z,-0.20
2022-11-20T17:27:16.622Z,-0.20
2022-11-20T17:29:45.646Z,-0.30
2022-11-20T17:32:13.857Z,-0.30
2022-11-20T17:34:43.372Z,-0.40
2022-11-20T17:37:12.666Z,-0.40
2022-11-20T17:39:47.570Z,-0.42
2022-11-20T17:42:31.104Z,-0.50
2022-11-20T17:45:00.811Z,-0.50
2022-11-20T17:47:31.906Z,-0.50
2022-11-20T17:50:00.357Z,-0.50
2022-11-20T17:52:31.071Z,-0.48
2022-11-20T17:55:08.550Z,-0.50
2022-11-20T17:57:52.724Z,-0.50
2022-11-20T18:00:21.092Z,-0.50
2022-11-20T18:02:54.828Z,-0.60
2022-11-20T18:05:40.445Z,-0.60
2022-11-20T18:08:16.347Z,-0.66
2022-11-20T18:10:52.883Z,-0.70
2022-11-20T18:13:47.580Z,-0.70
2022-11-20T18:16:16.005Z,-0.70
2022-11-20T18:18:44.583Z,-0.60
2022-11-20T18:21:15.980Z,-0.60
2022-11-20T18:23:49.484Z,-0.50
2022-11-20T18:26:21.670Z,-0.50
2022-11-20T18:28:51.926Z,-0.50
2022-11-20T18:31:23.268Z,-0.50
2022-11-20T18:33:53.968Z,-0.50
2022-11-20T18:36:33.788Z,-0.50
2022-11-20T18:39:04.739Z,-0.50
2022-11-20T18:41:53.124Z,-0.56
2022-11-20T18:44:49.544Z,-0.60
2022-11-20T18:47:31.013Z,-0.60
2022-11-20T18:50:07.505Z,-0.70
2022-11-20T18:52:44.732Z,-0.70
2022-11-20T18:55:17.227Z,-0.70
2022-11-20T18:57:47.968Z,-0.70
2022-11-20T19:00:18.081Z,-0.70
2022-11-20T19:03:21.220Z,-0.70
2022-11-20T19:05:50.986Z,-0.68
2022-11-20T19:08:21.696Z,-0.60
2022-11-20T19:11:07.403Z,-0.60
2022-11-20T19:15:36.973Z,-0.52
2022-11-20T19:17:17.014Z,-0.50
2022-11-20T19:19:49.803Z,-0.48
2022-11-20T19:22:24.249Z,-0.40
2022-11-20T19:24:56.016Z,-0.38
2022-11-20T19:27:25.329Z,-0.30
2022-11-20T19:29:53.723Z,-0.30
2022-11-20T19:32:30.602Z,-0.30
2022-11-20T19:34:58.677Z,-0.30
2022-11-20T19:37:26.837Z,-0.32
2022-11-20T19:39:59.354Z,-0.40
2022-11-20T19:42:28.907Z,-0.40
2022-11-20T19:44:58.411Z,-0.50
2022-11-20T19:47:52.604Z,-0.50
2022-11-20T19:50:22.197Z,-0.50
2022-11-20T19:52:58.376Z,-0.50
2022-11-20T19:55:33.163Z,-0.50
2022-11-20T19:58:03.759Z,-0.42
2022-11-20T20:00:33.085Z,-0.40
2022-11-20T20:03:03.377Z,-0.40
2022-11-20T20:05:38.373Z,-0.40
2022-11-20T20:08:07.555Z,-0.40
2022-11-20T20:10:35.963Z,-0.40
2022-11-20T20:13:04.899Z,-0.42
2022-11-20T20:15:44.849Z,-0.40
2022-11-20T20:18:16.958Z,-0.40
2022-11-20T20:20:47.528Z,-0.40
2022-11-20T20:23:23.334Z,-0.44
2022-11-20T20:25:54.365Z,-0.42
2022-11-20T20:28:25.240Z,-0.44
2022-11-20T20:30:58.408Z,-0.42
2022-11-20T20:33:31.392Z,-0.40
2022-11-20T20:36:01.925Z,-0.40
2022-11-20T20:38:31.443Z,-0.40
2022-11-20T20:41:00.831Z,-0.40
2022-11-20T20:43:31.664Z,-0.30
2022-11-20T20:46:01.380Z,-0.30
2022-11-20T20:48:30.101Z,-0.20
2022-11-20T20:51:03.167Z,-0.14
2022-11-20T20:53:38.418Z,-0.10
2022-11-20T20:56:14.760Z,0.00
2022-11-20T20:58:52.730Z,0.00
2022-11-20T21:01:27.038Z,0.00
2022-11-20T21:03:56.627Z,0.00
2022-11-20T21:06:26.247Z,0.00
2022-11-20T21:09:08.108Z,0.00
2022-11-20T21:11:50.711Z,-0.10
2022-11-20T21:14:19.204Z,-0.10
2022-11-20T21:16:52.811Z,-0.10
2022-11-20T21:19:30.188Z,-0.20
2022-11-20T21:22:00.366Z,-0.20
2022-11-20T21:24:31.845Z,-0.20
2022-11-20T21:27:13.785Z,-0.20
2022-11-20T21:29:51.584Z,-0.18
2022-11-20T21:32:19.748Z,-0.10
2022-11-20T21:34:53.253Z,-0.10
2022-11-20T21:37:26.619Z,0.00
2022-11-20T21:39:57.936Z,0.00
2022-11-20T21:42:28.297Z,0.00
2022-11-20T21:45:00.281Z,0.00
2022-11-20T21:47:31.248Z,0.00
2022-11-20T21:50:08.367Z,0.00
2022-11-20T21:52:40.605Z,0.00
2022-11-20T21:55:12.694Z,0.00
2022-11-20T21:57:44.065Z,-0.04
2022-11-20T22:00:13.485Z,-0.10
2022-11-20T22:02:49.335Z,-0.10
2022-11-20T22:05:21.506Z,-0.10
2022-11-20T22:07:52.543Z,-0.16
2022-11-20T22:10:24.431Z,-0.20
2022-11-20T22:13:14.106Z,-0.20
2022-11-20T22:15:59.810Z,-0.20
2022-11-20T22:18:29.581Z,-0.20
2022-11-20T22:21:08.429Z,-0.20
2022-11-20T22:23:41.917Z,-0.12
2022-11-20T22:26:22.716Z,-0.10
2022-11-20T22:28:53.900Z,-0.10
2022-11-20T22:31:29.506Z,0.00
2022-11-20T22:34:06.377Z,0.00
2022-11-20T22:36:39.367Z,0.00
2022-11-20T22:39:12.953Z,0.00
2022-11-20T22:41:41.139Z,0.00
2022-11-20T22:44:14.788Z,-0.10
2022-11-20T22:46:48.126Z,-0.14
2022-11-20T22:49:22.129Z,-0.20
2022-11-20T22:51:51.503Z,-0.20
2022-11-20T22:54:30.635Z,-0.26
2022-11-20T22:57:08.908Z,-0.30
2022-11-20T22:59:39.872Z,-0.30
2022-11-20T23:02:11.131Z,-0.40
2022-11-20T23:04:43.113Z,-0.42
2022-11-20T23:07:11.636Z,-0.50
2022-11-20T23:09:45.001Z,-0.50
2022-11-20T23:12:16.057Z,-0.60
2022-11-20T23:14:46.798Z,-0.60
2022-11-20T23:17:15.482Z,-0.62
2022-11-20T23:19:44.516Z,-0.60
2022-11-20T23:22:13.131Z,-0.60
2022-11-20T23:24:46.618Z,-0.60
2022-11-20T23:27:17.916Z,-0.60
2022-11-20T23:29:56.680Z,-0.60
2022-11-20T23:32:27.626Z,-0.60
2022-11-20T23:35:00.097Z,-0.60
2022-11-20T23:37:29.668Z,-0.60
2022-11-20T23:40:02.477Z,-0.60
2022-11-20T23:42:36.146Z,-0.60
2022-11-20T23:45:06.889Z,-0.70
2022-11-20T23:47:35.179Z,-0.70
2022-11-20T23:50:03.372Z,-0.70
2022-11-20T23:52:37.048Z,-0.80
2022-11-20T23:55:06.341Z,-0.80
2022-11-20T23:57:36.221Z,-0.80
